Woodstock, Canada
Current Conditions -  °F | °C
As of 9:53 PM on Saturday 20 Dec 2014 (Local Time) from KHUL Reporting Station
Overcast Overcast  
Wind Chill: 10°   Ceiling: 1800
Heat Index: 18°   Visibility: 10mi
Dew Point: 15°   Wind: 6mph
Humidity: 88%   Direction: 10°N
Pressure: 30.35"   Gusts: NA
Location:  46.15°N, 67.58°W
Report Text: KHUL 210153Z AUTO 01005KT 10SM OVC018 M08/M09 A3035 RMK AO2 SLP288 T10781094
Loading
Personal Weather Stations






























Interactive Weather Map New forecast layout! Learn more

10-Day Weather Forecast

Advertisements
Track Severe Weather on mobile